sensor_id;sensor_type;location;lat;lon;timestamp;temperature;humidity
25914;DHT22;13718;50.922;5.346;2022-09-03T00:02:13;19.70;72.00
25914;DHT22;13718;50.922;5.346;2022-09-03T00:05:04;19.60;72.00
25914;DHT22;13718;50.922;5.346;2022-09-03T00:10:15;19.60;72.20
25914;DHT22;13718;50.922;5.346;2022-09-03T00:12:43;19.60;72.10
25914;DHT22;13718;50.922;5.346;2022-09-03T00:15:20;19.60;72.30
25914;DHT22;13718;50.922;5.346;2022-09-03T00:18:06;19.50;72.50
25914;DHT22;13718;50.922;5.346;2022-09-03T00:20:42;19.50;72.50
25914;DHT22;13718;50.922;5.346;2022-09-03T00:23:15;19.50;72.70
25914;DHT22;13718;50.922;5.346;2022-09-03T00:28:33;19.50;72.80
25914;DHT22;13718;50.922;5.346;2022-09-03T00:31:19;19.50;72.70
25914;DHT22;13718;50.922;5.346;2022-09-03T00:33:55;19.50;72.50
25914;DHT22;13718;50.922;5.346;2022-09-03T00:36:31;19.50;72.30
25914;DHT22;13718;50.922;5.346;2022-09-03T00:38:58;19.50;72.60
25914;DHT22;13718;50.922;5.346;2022-09-03T00:41:50;19.50;72.50
25914;DHT22;13718;50.922;5.346;2022-09-03T00:44:38;19.50;72.60
25914;DHT22;13718;50.922;5.346;2022-09-03T00:47:18;19.60;72.50
25914;DHT22;13718;50.922;5.346;2022-09-03T01:00:28;19.40;73.40
25914;DHT22;13718;50.922;5.346;2022-09-03T01:05:41;19.40;73.30
25914;DHT22;13718;50.922;5.346;2022-09-03T01:08:42;19.40;73.10
25914;DHT22;13718;50.922;5.346;2022-09-03T01:14:41;19.20;73.70
25914;DHT22;13718;50.922;5.346;2022-09-03T01:29:12;19.10;75.00
25914;DHT22;13718;50.922;5.346;2022-09-03T01:32:00;19.10;74.20
25914;DHT22;13718;50.922;5.346;2022-09-03T01:39:50;19.20;74.30
25914;DHT22;13718;50.922;5.346;2022-09-03T01:45:36;19.10;75.10
25914;DHT22;13718;50.922;5.346;2022-09-03T01:48:44;19.10;75.30
25914;DHT22;13718;50.922;5.346;2022-09-03T01:51:26;19.10;75.80
25914;DHT22;13718;50.922;5.346;2022-09-03T01:54:14;19.10;75.50
25914;DHT22;13718;50.922;5.346;2022-09-03T01:59:47;19.10;75.80
25914;DHT22;13718;50.922;5.346;2022-09-03T02:02:23;19.00;76.00
25914;DHT22;13718;50.922;5.346;2022-09-03T02:07:33;19.00;76.10
25914;DHT22;13718;50.922;5.346;2022-09-03T02:10:01;19.00;76.10
25914;DHT22;13718;50.922;5.346;2022-09-03T02:12:30;19.10;75.80
25914;DHT22;13718;50.922;5.346;2022-09-03T02:15:00;19.30;75.20
25914;DHT22;13718;50.922;5.346;2022-09-03T02:17:29;19.30;74.90
25914;DHT22;13718;50.922;5.346;2022-09-03T02:19:56;19.30;75.40
25914;DHT22;13718;50.922;5.346;2022-09-03T02:22:22;19.30;75.50
25914;DHT22;13718;50.922;5.346;2022-09-03T02:24:48;19.30;75.40
25914;DHT22;13718;50.922;5.346;2022-09-03T02:27:14;19.30;75.40
25914;DHT22;13718;50.922;5.346;2022-09-03T02:29:40;19.20;75.60
25914;DHT22;13718;50.922;5.346;2022-09-03T02:32:06;19.30;75.70
25914;DHT22;13718;50.922;5.346;2022-09-03T02:34:32;19.30;75.90
25914;DHT22;13718;50.922;5.346;2022-09-03T02:36:57;19.20;76.70
25914;DHT22;13718;50.922;5.346;2022-09-03T02:39:23;19.20;76.00
25914;DHT22;13718;50.922;5.346;2022-09-03T02:41:54;19.20;75.80
25914;DHT22;13718;50.922;5.346;2022-09-03T02:44:27;19.10;76.00
25914;DHT22;13718;50.922;5.346;2022-09-03T02:47:01;19.10;76.40
25914;DHT22;13718;50.922;5.346;2022-09-03T02:49:28;19.00;76.40
25914;DHT22;13718;50.922;5.346;2022-09-03T02:52:04;19.00;76.50
25914;DHT22;13718;50.922;5.346;2022-09-03T02:54:31;19.00;76.60
25914;DHT22;13718;50.922;5.346;2022-09-03T02:56:58;18.90;76.90
25914;DHT22;13718;50.922;5.346;2022-09-03T02:59:24;18.90;77.40
25914;DHT22;13718;50.922;5.346;2022-09-03T03:01:53;19.00;77.50
25914;DHT22;13718;50.922;5.346;2022-09-03T03:04:18;19.00;77.10
25914;DHT22;13718;50.922;5.346;2022-09-03T03:06:44;19.10;78.10
25914;DHT22;13718;50.922;5.346;2022-09-03T03:09:10;19.10;77.10
25914;DHT22;13718;50.922;5.346;2022-09-03T03:11:35;19.10;77.10
25914;DHT22;13718;50.922;5.346;2022-09-03T03:14:01;19.10;77.00
25914;DHT22;13718;50.922;5.346;2022-09-03T03:16:27;19.10;77.30
25914;DHT22;13718;50.922;5.346;2022-09-03T03:18:55;19.10;77.10
25914;DHT22;13718;50.922;5.346;2022-09-03T03:21:21;19.20;76.70
25914;DHT22;13718;50.922;5.346;2022-09-03T03:23:47;19.10;76.70
25914;DHT22;13718;50.922;5.346;2022-09-03T03:26:16;19.00;77.20
25914;DHT22;13718;50.922;5.346;2022-09-03T03:28:46;19.00;77.30
25914;DHT22;13718;50.922;5.346;2022-09-03T03:31:15;19.10;77.40
25914;DHT22;13718;50.922;5.346;2022-09-03T03:33:41;19.10;77.30
25914;DHT22;13718;50.922;5.346;2022-09-03T03:36:12;19.10;77.60
25914;DHT22;13718;50.922;5.346;2022-09-03T03:38:39;19.10;77.60
25914;DHT22;13718;50.922;5.346;2022-09-03T03:41:13;19.20;77.40
25914;DHT22;13718;50.922;5.346;2022-09-03T03:43:40;19.20;77.90
25914;DHT22;13718;50.922;5.346;2022-09-03T03:46:05;19.20;77.50
25914;DHT22;13718;50.922;5.346;2022-09-03T03:48:32;19.10;77.60
25914;DHT22;13718;50.922;5.346;2022-09-03T03:51:06;19.00;77.90
25914;DHT22;13718;50.922;5.346;2022-09-03T03:53:33;19.10;78.00
25914;DHT22;13718;50.922;5.346;2022-09-03T03:56:02;19.20;78.10
25914;DHT22;13718;50.922;5.346;2022-09-03T03:58:29;19.10;78.10
25914;DHT22;13718;50.922;5.346;2022-09-03T04:01:03;19.10;78.60
25914;DHT22;13718;50.922;5.346;2022-09-03T04:03:29;19.00;78.60
25914;DHT22;13718;50.922;5.346;2022-09-03T04:05:56;18.90;78.90
25914;DHT22;13718;50.922;5.346;2022-09-03T04:08:24;19.00;79.20
25914;DHT22;13718;50.922;5.346;2022-09-03T04:10:50;19.00;79.40
25914;DHT22;13718;50.922;5.346;2022-09-03T04:13:16;18.90;79.80
25914;DHT22;13718;50.922;5.346;2022-09-03T04:15:41;18.90;80.10
25914;DHT22;13718;50.922;5.346;2022-09-03T04:18:07;19.00;80.10
25914;DHT22;13718;50.922;5.346;2022-09-03T04:20:35;19.00;80.10
25914;DHT22;13718;50.922;5.346;2022-09-03T04:23:01;19.00;80.00
25914;DHT22;13718;50.922;5.346;2022-09-03T04:25:26;19.00;80.30
25914;DHT22;13718;50.922;5.346;2022-09-03T04:27:52;18.90;80.30
25914;DHT22;13718;50.922;5.346;2022-09-03T04:30:18;18.90;80.60
25914;DHT22;13718;50.922;5.346;2022-09-03T04:32:44;18.90;80.60
25914;DHT22;13718;50.922;5.346;2022-09-03T04:35:19;19.00;80.20
25914;DHT22;13718;50.922;5.346;2022-09-03T04:37:46;19.10;80.00
25914;DHT22;13718;50.922;5.346;2022-09-03T04:40:12;19.00;80.50
25914;DHT22;13718;50.922;5.346;2022-09-03T04:42:37;18.90;80.80
25914;DHT22;13718;50.922;5.346;2022-09-03T04:45:04;18.90;80.90
25914;DHT22;13718;50.922;5.346;2022-09-03T04:47:30;19.00;80.70
25914;DHT22;13718;50.922;5.346;2022-09-03T04:49:55;18.90;80.80
25914;DHT22;13718;50.922;5.346;2022-09-03T04:52:21;18.90;81.00
25914;DHT22;13718;50.922;5.346;2022-09-03T04:54:47;18.80;81.30
25914;DHT22;13718;50.922;5.346;2022-09-03T04:57:12;18.80;81.30
25914;DHT22;13718;50.922;5.346;2022-09-03T04:59:38;18.80;81.40
25914;DHT22;13718;50.922;5.346;2022-09-03T05:02:05;18.90;81.30
25914;DHT22;13718;50.922;5.346;2022-09-03T05:04:31;18.80;81.40
25914;DHT22;13718;50.922;5.346;2022-09-03T05:06:56;18.80;81.80
25914;DHT22;13718;50.922;5.346;2022-09-03T05:09:22;18.80;81.90
25914;DHT22;13718;50.922;5.346;2022-09-03T05:11:47;18.90;82.10
25914;DHT22;13718;50.922;5.346;2022-09-03T05:14:13;18.80;81.80
25914;DHT22;13718;50.922;5.346;2022-09-03T05:16:39;18.60;82.40
25914;DHT22;13718;50.922;5.346;2022-09-03T05:19:04;18.60;83.00
25914;DHT22;13718;50.922;5.346;2022-09-03T05:21:33;18.60;83.10
25914;DHT22;13718;50.922;5.346;2022-09-03T05:24:00;18.60;83.00
25914;DHT22;13718;50.922;5.346;2022-09-03T05:26:29;18.70;82.70
25914;DHT22;13718;50.922;5.346;2022-09-03T05:28:56;18.80;83.20
25914;DHT22;13718;50.922;5.346;2022-09-03T05:31:24;19.00;81.60
25914;DHT22;13718;50.922;5.346;2022-09-03T05:33:53;19.00;81.60
25914;DHT22;13718;50.922;5.346;2022-09-03T05:36:23;19.00;81.70
25914;DHT22;13718;50.922;5.346;2022-09-03T05:38:50;19.00;81.70
25914;DHT22;13718;50.922;5.346;2022-09-03T05:41:18;18.90;81.60
25914;DHT22;13718;50.922;5.346;2022-09-03T05:43:47;19.00;81.30
25914;DHT22;13718;50.922;5.346;2022-09-03T05:46:17;19.00;80.80
25914;DHT22;13718;50.922;5.346;2022-09-03T05:48:43;19.10;80.50
25914;DHT22;13718;50.922;5.346;2022-09-03T05:51:10;19.10;80.80
25914;DHT22;13718;50.922;5.346;2022-09-03T05:53:38;19.10;80.90
25914;DHT22;13718;50.922;5.346;2022-09-03T05:56:15;19.10;81.00
25914;DHT22;13718;50.922;5.346;2022-09-03T05:58:55;19.20;81.00
25914;DHT22;13718;50.922;5.346;2022-09-03T06:01:29;19.20;80.90
25914;DHT22;13718;50.922;5.346;2022-09-03T06:06:23;19.40;79.90
25914;DHT22;13718;50.922;5.346;2022-09-03T06:08:53;19.60;79.30
25914;DHT22;13718;50.922;5.346;2022-09-03T06:11:20;19.60;79.50
25914;DHT22;13718;50.922;5.346;2022-09-03T06:13:46;19.80;78.90
25914;DHT22;13718;50.922;5.346;2022-09-03T06:16:12;19.80;78.30
25914;DHT22;13718;50.922;5.346;2022-09-03T06:18:37;19.90;78.30
25914;DHT22;13718;50.922;5.346;2022-09-03T06:21:05;19.90;78.70
25914;DHT22;13718;50.922;5.346;2022-09-03T06:23:32;20.10;78.10
25914;DHT22;13718;50.922;5.346;2022-09-03T06:26:04;20.00;78.70
25914;DHT22;13718;50.922;5.346;2022-09-03T06:28:34;20.00;79.10
25914;DHT22;13718;50.922;5.346;2022-09-03T06:31:02;20.10;78.20
25914;DHT22;13718;50.922;5.346;2022-09-03T06:33:29;20.20;78.20
25914;DHT22;13718;50.922;5.346;2022-09-03T06:35:58;20.30;78.10
25914;DHT22;13718;50.922;5.346;2022-09-03T06:38:30;20.30;78.40
25914;DHT22;13718;50.922;5.346;2022-09-03T06:41:09;20.40;78.10
25914;DHT22;13718;50.922;5.346;2022-09-03T06:43:37;20.40;77.70
25914;DHT22;13718;50.922;5.346;2022-09-03T06:46:09;20.40;77.90
25914;DHT22;13718;50.922;5.346;2022-09-03T06:48:36;20.40;77.60
25914;DHT22;13718;50.922;5.346;2022-09-03T06:51:07;20.40;77.20
25914;DHT22;13718;50.922;5.346;2022-09-03T06:53:38;20.50;77.40
25914;DHT22;13718;50.922;5.346;2022-09-03T06:56:06;20.40;77.60
25914;DHT22;13718;50.922;5.346;2022-09-03T06:58:37;20.40;77.70
25914;DHT22;13718;50.922;5.346;2022-09-03T07:01:03;20.60;77.40
25914;DHT22;13718;50.922;5.346;2022-09-03T07:03:31;20.60;77.30
25914;DHT22;13718;50.922;5.346;2022-09-03T07:06:08;20.80;76.80
25914;DHT22;13718;50.922;5.346;2022-09-03T07:08:34;21.00;75.60
25914;DHT22;13718;50.922;5.346;2022-09-03T07:11:01;21.30;75.20
25914;DHT22;13718;50.922;5.346;2022-09-03T07:13:29;21.50;74.80
25914;DHT22;13718;50.922;5.346;2022-09-03T07:16:12;21.90;73.90
25914;DHT22;13718;50.922;5.346;2022-09-03T07:18:38;22.40;73.30
25914;DHT22;13718;50.922;5.346;2022-09-03T07:21:07;22.80;72.10
25914;DHT22;13718;50.922;5.346;2022-09-03T07:23:33;23.10;71.50
25914;DHT22;13718;50.922;5.346;2022-09-03T07:26:01;23.50;70.50
25914;DHT22;13718;50.922;5.346;2022-09-03T07:28:28;23.70;69.50
25914;DHT22;13718;50.922;5.346;2022-09-03T07:31:04;23.80;69.00
25914;DHT22;13718;50.922;5.346;2022-09-03T07:33:30;23.90;68.60
25914;DHT22;13718;50.922;5.346;2022-09-03T07:36:01;24.20;67.80
25914;DHT22;13718;50.922;5.346;2022-09-03T07:38:27;24.30;68.10
25914;DHT22;13718;50.922;5.346;2022-09-03T07:41:00;24.30;68.20
25914;DHT22;13718;50.922;5.346;2022-09-03T07:43:28;24.40;67.20
25914;DHT22;13718;50.922;5.346;2022-09-03T07:45:54;24.40;67.80
25914;DHT22;13718;50.922;5.346;2022-09-03T07:48:21;24.40;67.80
25914;DHT22;13718;50.922;5.346;2022-09-03T07:50:47;25.20;66.70
25914;DHT22;13718;50.922;5.346;2022-09-03T07:53:16;26.50;64.40
25914;DHT22;13718;50.922;5.346;2022-09-03T07:55:42;27.00;63.30
25914;DHT22;13718;50.922;5.346;2022-09-03T07:58:11;27.40;62.30
25914;DHT22;13718;50.922;5.346;2022-09-03T08:00:37;28.10;61.50
25914;DHT22;13718;50.922;5.346;2022-09-03T08:03:03;28.50;60.80
25914;DHT22;13718;50.922;5.346;2022-09-03T08:05:33;28.30;61.00
25914;DHT22;13718;50.922;5.346;2022-09-03T08:08:03;27.90;61.00
25914;DHT22;13718;50.922;5.346;2022-09-03T08:10:33;27.70;61.80
25914;DHT22;13718;50.922;5.346;2022-09-03T08:12:58;27.50;62.80
25914;DHT22;13718;50.922;5.346;2022-09-03T08:15:25;27.30;63.10
25914;DHT22;13718;50.922;5.346;2022-09-03T08:17:51;27.30;63.40
25914;DHT22;13718;50.922;5.346;2022-09-03T08:20:17;27.40;63.50
25914;DHT22;13718;50.922;5.346;2022-09-03T08:22:43;27.70;63.20
25914;DHT22;13718;50.922;5.346;2022-09-03T08:25:09;28.00;63.10
25914;DHT22;13718;50.922;5.346;2022-09-03T08:27:34;28.10;62.90
25914;DHT22;13718;50.922;5.346;2022-09-03T08:30:00;28.30;62.80
25914;DHT22;13718;50.922;5.346;2022-09-03T08:32:26;28.30;62.50
25914;DHT22;13718;50.922;5.346;2022-09-03T08:34:51;28.40;62.40
25914;DHT22;13718;50.922;5.346;2022-09-03T08:37:17;28.60;62.30
25914;DHT22;13718;50.922;5.346;2022-09-03T08:39:44;28.80;62.00
25914;DHT22;13718;50.922;5.346;2022-09-03T08:45:00;29.80;61.70
25914;DHT22;13718;50.922;5.346;2022-09-03T08:47:42;31.90;59.00
25914;DHT22;13718;50.922;5.346;2022-09-03T08:50:24;33.40;55.70
25914;DHT22;13718;50.922;5.346;2022-09-03T08:53:10;33.20;56.00
25914;DHT22;13718;50.922;5.346;2022-09-03T08:55:46;32.90;56.00
25914;DHT22;13718;50.922;5.346;2022-09-03T08:58:23;32.20;57.10
25914;DHT22;13718;50.922;5.346;2022-09-03T09:08:34;31.00;61.80
25914;DHT22;13718;50.922;5.346;2022-09-03T09:11:21;31.10;62.00
25914;DHT22;13718;50.922;5.346;2022-09-03T09:14:02;30.80;62.70
25914;DHT22;13718;50.922;5.346;2022-09-03T09:22:26;30.20;64.70
25914;DHT22;13718;50.922;5.346;2022-09-03T09:24:55;30.20;65.30
25914;DHT22;13718;50.922;5.346;2022-09-03T09:27:23;30.10;65.40
25914;DHT22;13718;50.922;5.346;2022-09-03T09:29:49;29.90;65.80
25914;DHT22;13718;50.922;5.346;2022-09-03T09:32:16;29.90;65.70
25914;DHT22;13718;50.922;5.346;2022-09-03T09:34:44;29.80;66.40
25914;DHT22;13718;50.922;5.346;2022-09-03T09:37:12;29.80;67.00
25914;DHT22;13718;50.922;5.346;2022-09-03T09:39:39;29.80;67.50
25914;DHT22;13718;50.922;5.346;2022-09-03T09:42:06;29.90;67.30
25914;DHT22;13718;50.922;5.346;2022-09-03T09:44:37;29.80;67.30
25914;DHT22;13718;50.922;5.346;2022-09-03T09:47:12;29.90;67.10
25914;DHT22;13718;50.922;5.346;2022-09-03T09:49:53;29.80;67.80
25914;DHT22;13718;50.922;5.346;2022-09-03T09:52:20;29.80;67.90
25914;DHT22;13718;50.922;5.346;2022-09-03T09:54:51;29.60;68.80
25914;DHT22;13718;50.922;5.346;2022-09-03T09:57:22;29.30;69.20
25914;DHT22;13718;50.922;5.346;2022-09-03T09:59:47;29.30;69.80
25914;DHT22;13718;50.922;5.346;2022-09-03T10:04:46;29.00;70.10
25914;DHT22;13718;50.922;5.346;2022-09-03T10:18:02;28.70;70.60
25914;DHT22;13718;50.922;5.346;2022-09-03T10:20:39;28.60;71.20
25914;DHT22;13718;50.922;5.346;2022-09-03T10:23:20;28.60;71.90
25914;DHT22;13718;50.922;5.346;2022-09-03T10:26:20;28.70;71.30
25914;DHT22;13718;50.922;5.346;2022-09-03T10:28:52;29.00;71.40
25914;DHT22;13718;50.922;5.346;2022-09-03T10:34:20;29.30;70.00
25914;DHT22;13718;50.922;5.346;2022-09-03T10:36:54;29.50;69.00
25914;DHT22;13718;50.922;5.346;2022-09-03T10:39:30;29.50;69.60
25914;DHT22;13718;50.922;5.346;2022-09-03T10:45:11;29.80;69.20
25914;DHT22;13718;50.922;5.346;2022-09-03T10:50:51;29.90;68.00
25914;DHT22;13718;50.922;5.346;2022-09-03T10:56:06;30.00;67.40
25914;DHT22;13718;50.922;5.346;2022-09-03T10:59:02;29.90;68.30
25914;DHT22;13718;50.922;5.346;2022-09-03T11:07:19;29.40;66.60
25914;DHT22;13718;50.922;5.346;2022-09-03T11:10:00;29.10;67.60
25914;DHT22;13718;50.922;5.346;2022-09-03T11:12:37;29.00;68.50
25914;DHT22;13718;50.922;5.346;2022-09-03T11:15:23;28.80;69.40
25914;DHT22;13718;50.922;5.346;2022-09-03T11:18:07;28.60;69.90
25914;DHT22;13718;50.922;5.346;2022-09-03T11:20:37;28.20;70.80
25914;DHT22;13718;50.922;5.346;2022-09-03T11:23:06;28.00;71.70
25914;DHT22;13718;50.922;5.346;2022-09-03T11:25:40;28.10;72.30
25914;DHT22;13718;50.922;5.346;2022-09-03T11:28:58;28.20;72.50
25914;DHT22;13718;50.922;5.346;2022-09-03T11:31:37;28.30;72.00
25914;DHT22;13718;50.922;5.346;2022-09-03T11:36:50;28.40;70.70
25914;DHT22;13718;50.922;5.346;2022-09-03T11:39:23;28.40;70.60
25914;DHT22;13718;50.922;5.346;2022-09-03T11:42:02;28.50;68.70
25914;DHT22;13718;50.922;5.346;2022-09-03T11:44:40;28.50;69.00
25914;DHT22;13718;50.922;5.346;2022-09-03T11:49:47;28.30;71.10
25914;DHT22;13718;50.922;5.346;2022-09-03T11:52:28;28.30;71.70
25914;DHT22;13718;50.922;5.346;2022-09-03T11:54:54;28.60;70.20
25914;DHT22;13718;50.922;5.346;2022-09-03T11:57:27;28.40;70.20
25914;DHT22;13718;50.922;5.346;2022-09-03T11:59:54;28.00;71.50
25914;DHT22;13718;50.922;5.346;2022-09-03T12:02:34;27.80;72.70
25914;DHT22;13718;50.922;5.346;2022-09-03T12:18:46;28.10;71.50
25914;DHT22;13718;50.922;5.346;2022-09-03T12:21:17;28.20;70.90
25914;DHT22;13718;50.922;5.346;2022-09-03T12:26:18;28.40;70.20
25914;DHT22;13718;50.922;5.346;2022-09-03T12:28:55;28.60;69.80
25914;DHT22;13718;50.922;5.346;2022-09-03T12:34:06;28.50;68.70
25914;DHT22;13718;50.922;5.346;2022-09-03T12:36:42;28.70;70.30
25914;DHT22;13718;50.922;5.346;2022-09-03T12:39:13;28.50;68.60
25914;DHT22;13718;50.922;5.346;2022-09-03T12:42:06;28.40;69.00
25914;DHT22;13718;50.922;5.346;2022-09-03T12:47:10;28.70;69.40
25914;DHT22;13718;50.922;5.346;2022-09-03T12:49:41;28.90;68.80
25914;DHT22;13718;50.922;5.346;2022-09-03T12:57:25;29.40;67.40
25914;DHT22;13718;50.922;5.346;2022-09-03T12:59:55;29.30;67.70
25914;DHT22;13718;50.922;5.346;2022-09-03T13:02:38;29.50;66.60
25914;DHT22;13718;50.922;5.346;2022-09-03T13:05:14;29.60;66.20
25914;DHT22;13718;50.922;5.346;2022-09-03T13:07:46;29.70;65.70
25914;DHT22;13718;50.922;5.346;2022-09-03T13:10:35;29.70;66.50
25914;DHT22;13718;50.922;5.346;2022-09-03T13:13:20;29.80;64.80
25914;DHT22;13718;50.922;5.346;2022-09-03T13:27:13;29.80;64.30
25914;DHT22;13718;50.922;5.346;2022-09-03T13:32:35;29.50;64.00
25914;DHT22;13718;50.922;5.346;2022-09-03T13:35:12;29.50;63.90
25914;DHT22;13718;50.922;5.346;2022-09-03T13:38:12;29.60;63.80
25914;DHT22;13718;50.922;5.346;2022-09-03T13:40:41;29.80;64.20
25914;DHT22;13718;50.922;5.346;2022-09-03T13:43:42;30.20;61.60
25914;DHT22;13718;50.922;5.346;2022-09-03T13:46:16;30.00;62.50
25914;DHT22;13718;50.922;5.346;2022-09-03T13:48:44;29.80;62.10
25914;DHT22;13718;50.922;5.346;2022-09-03T13:54:18;29.70;63.20
25914;DHT22;13718;50.922;5.346;2022-09-03T13:56:56;29.80;63.50
25914;DHT22;13718;50.922;5.346;2022-09-03T14:04:57;30.40;62.20
25914;DHT22;13718;50.922;5.346;2022-09-03T14:10:20;30.60;61.20
25914;DHT22;13718;50.922;5.346;2022-09-03T14:12:54;30.50;61.70
25914;DHT22;13718;50.922;5.346;2022-09-03T14:15:35;30.30;63.70
25914;DHT22;13718;50.922;5.346;2022-09-03T14:18:31;30.00;65.20
25914;DHT22;13718;50.922;5.346;2022-09-03T14:21:07;29.60;65.80
25914;DHT22;13718;50.922;5.346;2022-09-03T14:26:13;29.60;65.90
25914;DHT22;13718;50.922;5.346;2022-09-03T14:28:45;29.40;65.80
25914;DHT22;13718;50.922;5.346;2022-09-03T14:34:09;29.10;67.00
25914;DHT22;13718;50.922;5.346;2022-09-03T14:36:48;29.00;67.40
25914;DHT22;13718;50.922;5.346;2022-09-03T14:39:25;28.60;68.50
25914;DHT22;13718;50.922;5.346;2022-09-03T14:42:15;28.60;69.20
25914;DHT22;13718;50.922;5.346;2022-09-03T14:47:18;28.50;70.50
25914;DHT22;13718;50.922;5.346;2022-09-03T14:50:07;28.50;70.30
25914;DHT22;13718;50.922;5.346;2022-09-03T14:59:38;29.10;68.80
25914;DHT22;13718;50.922;5.346;2022-09-03T15:05:10;28.80;70.70
25914;DHT22;13718;50.922;5.346;2022-09-03T15:07:58;28.80;70.70
25914;DHT22;13718;50.922;5.346;2022-09-03T15:10:51;28.60;70.80
25914;DHT22;13718;50.922;5.346;2022-09-03T15:16:04;28.80;70.00
25914;DHT22;13718;50.922;5.346;2022-09-03T15:24:42;28.40;70.70
25914;DHT22;13718;50.922;5.346;2022-09-03T15:27:51;28.20;71.30
25914;DHT22;13718;50.922;5.346;2022-09-03T15:30:20;28.10;72.00
25914;DHT22;13718;50.922;5.346;2022-09-03T15:35:43;27.90;73.00
25914;DHT22;13718;50.922;5.346;2022-09-03T15:38:22;28.10;72.20
25914;DHT22;13718;50.922;5.346;2022-09-03T15:40:51;28.10;72.80
25914;DHT22;13718;50.922;5.346;2022-09-03T15:43:26;28.10;73.70
25914;DHT22;13718;50.922;5.346;2022-09-03T15:45:59;28.00;73.90
25914;DHT22;13718;50.922;5.346;2022-09-03T15:48:49;28.00;74.00
25914;DHT22;13718;50.922;5.346;2022-09-03T15:51:35;27.80;74.20
25914;DHT22;13718;50.922;5.346;2022-09-03T16:00:02;27.50;73.80
25914;DHT22;13718;50.922;5.346;2022-09-03T16:02:46;27.50;73.60
25914;DHT22;13718;50.922;5.346;2022-09-03T16:05:18;27.50;74.00
25914;DHT22;13718;50.922;5.346;2022-09-03T16:16:12;27.20;76.00
25914;DHT22;13718;50.922;5.346;2022-09-03T16:18:45;27.30;75.90
25914;DHT22;13718;50.922;5.346;2022-09-03T16:24:11;27.30;75.90
25914;DHT22;13718;50.922;5.346;2022-09-03T16:26:50;27.10;76.90
25914;DHT22;13718;50.922;5.346;2022-09-03T16:29:27;26.90;77.20
25914;DHT22;13718;50.922;5.346;2022-09-03T16:32:12;26.90;77.60
25914;DHT22;13718;50.922;5.346;2022-09-03T16:35:45;27.00;76.60
25914;DHT22;13718;50.922;5.346;2022-09-03T16:38:12;26.80;76.50
25914;DHT22;13718;50.922;5.346;2022-09-03T16:49:13;26.80;77.10
25914;DHT22;13718;50.922;5.346;2022-09-03T16:51:55;26.80;77.20
25914;DHT22;13718;50.922;5.346;2022-09-03T16:54:39;26.70;76.80
25914;DHT22;13718;50.922;5.346;2022-09-03T16:57:36;26.60;76.90
25914;DHT22;13718;50.922;5.346;2022-09-03T17:00:13;26.70;76.80
25914;DHT22;13718;50.922;5.346;2022-09-03T17:05:47;26.60;75.40
25914;DHT22;13718;50.922;5.346;2022-09-03T17:08:46;26.60;75.60
25914;DHT22;13718;50.922;5.346;2022-09-03T17:17:08;26.30;77.40
25914;DHT22;13718;50.922;5.346;2022-09-03T17:20:07;26.10;77.90
25914;DHT22;13718;50.922;5.346;2022-09-03T17:30:57;26.00;78.30
25914;DHT22;13718;50.922;5.346;2022-09-03T17:33:51;25.90;78.70
25914;DHT22;13718;50.922;5.346;2022-09-03T17:36:27;25.80;79.20
25914;DHT22;13718;50.922;5.346;2022-09-03T17:42:11;25.60;80.20
25914;DHT22;13718;50.922;5.346;2022-09-03T17:49:49;25.60;80.60
25914;DHT22;13718;50.922;5.346;2022-09-03T17:52:37;25.70;80.60
25914;DHT22;13718;50.922;5.346;2022-09-03T18:03:43;25.80;79.40
25914;DHT22;13718;50.922;5.346;2022-09-03T18:12:08;25.60;80.00
25914;DHT22;13718;50.922;5.346;2022-09-03T18:14:45;25.60;80.20
25914;DHT22;13718;50.922;5.346;2022-09-03T18:20:20;25.40;80.70
25914;DHT22;13718;50.922;5.346;2022-09-03T18:26:14;25.40;82.10
25914;DHT22;13718;50.922;5.346;2022-09-03T18:29:02;25.30;82.90
25914;DHT22;13718;50.922;5.346;2022-09-03T18:31:48;25.20;83.50
25914;DHT22;13718;50.922;5.346;2022-09-03T18:34:34;25.10;83.70
25914;DHT22;13718;50.922;5.346;2022-09-03T18:37:26;25.00;84.20
25914;DHT22;13718;50.922;5.346;2022-09-03T18:40:18;25.00;84.90
25914;DHT22;13718;50.922;5.346;2022-09-03T18:46:17;25.00;86.00
25914;DHT22;13718;50.922;5.346;2022-09-03T18:49:19;24.90;86.20
25914;DHT22;13718;50.922;5.346;2022-09-03T18:52:18;24.80;86.50
25914;DHT22;13718;50.922;5.346;2022-09-03T18:55:16;24.80;86.80
25914;DHT22;13718;50.922;5.346;2022-09-03T19:01:28;24.80;87.40
25914;DHT22;13718;50.922;5.346;2022-09-03T19:07:10;24.80;87.70
25914;DHT22;13718;50.922;5.346;2022-09-03T19:10:06;24.80;88.40
25914;DHT22;13718;50.922;5.346;2022-09-03T19:15:58;24.80;88.80
25914;DHT22;13718;50.922;5.346;2022-09-03T19:22:10;25.00;88.30
25914;DHT22;13718;50.922;5.346;2022-09-03T19:25:01;24.90;88.40
25914;DHT22;13718;50.922;5.346;2022-09-03T19:28:06;24.60;89.20
25914;DHT22;13718;50.922;5.346;2022-09-03T19:33:50;24.30;90.10
25914;DHT22;13718;50.922;5.346;2022-09-03T19:36:55;24.10;90.30
25914;DHT22;13718;50.922;5.346;2022-09-03T19:40:11;23.90;90.50
25914;DHT22;13718;50.922;5.346;2022-09-03T19:46:29;23.60;90.80
25914;DHT22;13718;50.922;5.346;2022-09-03T19:52:08;23.40;91.10
25914;DHT22;13718;50.922;5.346;2022-09-03T19:54:55;23.30;91.10
25914;DHT22;13718;50.922;5.346;2022-09-03T19:57:41;23.10;91.30
25914;DHT22;13718;50.922;5.346;2022-09-03T20:00:27;23.10;91.40
25914;DHT22;13718;50.922;5.346;2022-09-03T20:03:13;23.10;91.40
25914;DHT22;13718;50.922;5.346;2022-09-03T20:05:59;23.10;91.30
25914;DHT22;13718;50.922;5.346;2022-09-03T20:08:46;23.10;91.20
25914;DHT22;13718;50.922;5.346;2022-09-03T20:11:31;23.00;91.50
25914;DHT22;13718;50.922;5.346;2022-09-03T20:13:58;22.90;91.40
25914;DHT22;13718;50.922;5.346;2022-09-03T20:19:35;22.70;91.70
25914;DHT22;13718;50.922;5.346;2022-09-03T20:22:29;22.60;91.80
25914;DHT22;13718;50.922;5.346;2022-09-03T20:25:18;22.50;91.90
25914;DHT22;13718;50.922;5.346;2022-09-03T20:30:21;22.90;91.40
25914;DHT22;13718;50.922;5.346;2022-09-03T20:40:51;23.10;91.40
25914;DHT22;13718;50.922;5.346;2022-09-03T20:49:30;22.90;92.20
25914;DHT22;13718;50.922;5.346;2022-09-03T20:52:16;22.80;92.50
25914;DHT22;13718;50.922;5.346;2022-09-03T20:55:09;22.60;93.00
25914;DHT22;13718;50.922;5.346;2022-09-03T20:57:54;22.50;93.30
25914;DHT22;13718;50.922;5.346;2022-09-03T21:00:23;22.40;93.50
25914;DHT22;13718;50.922;5.346;2022-09-03T21:05:43;22.20;94.10
25914;DHT22;13718;50.922;5.346;2022-09-03T21:11:39;22.10;94.50
25914;DHT22;13718;50.922;5.346;2022-09-03T21:16:41;22.10;95.10
25914;DHT22;13718;50.922;5.346;2022-09-03T21:19:29;22.10;95.10
25914;DHT22;13718;50.922;5.346;2022-09-03T21:22:30;22.00;95.30
25914;DHT22;13718;50.922;5.346;2022-09-03T21:25:01;21.90;95.60
25914;DHT22;13718;50.922;5.346;2022-09-03T21:27:35;21.70;95.90